Alice Springs Airport
YBAS : now visible

Airfield :











YOU CAN JOIN US ON...

 
LOGIN :

Register | Disclaimer

   EN    FR    IT 

 









Legend :    VFR   Marginal VFR   IFR   Intensive IFR   Very Intensive IFR
Visi :
Ceiling :
>= 8 km
>= 3000ft
5 to 8 km
1000 to 3000 ft
1500m to 5 km
500 to 1000 ft
800 to 1500m
200 to 500 ft
< 800m
< 200 ft
Symbols :   Thunderstorms  Fog  Heavy snow  Heavy precipitations  Wind > 20 kt






- Airport Elevation : 1789 ft
- IATA code : ASP


YBAS - Alice Springs

CURRENT METAR :
  • 280630Z AUTO 06009KT 9999 // NCD 26/06 Q1012 RF00.0/000.0

EXPIRED METARs :
  • 280600Z AUTO 11003KT 9999 // NCD 27/06 Q1012 RF00.0/000.0
  • 280530Z AUTO 36005KT 9999 // NCD 27/06 Q1013 RF00.0/000.0
  • 280500Z AUTO 06005KT 9999 // SCT115 27/06 Q1013 RF00.0/000.0
  • 280430Z AUTO 08006KT 040V110 9999 // NCD 26/06 Q1013 RF00.0/000.0

TAF TAF YBAS
Valid from the 28 at 06:00 until the 29 at 06:00 UTC


280501Z 2806/2906 30009KT CAVOK
FM281000 09009KT CAVOK
FM281500 35009KT CAVOK
BECMG 2822/2900 32018G28KT CAVOK
FM290300 29020G30KT CAVOK
YMMM FIR / Oceania



MET'MAP, your aeronautical weather chart ! - Copyright ORBIFLY December 2007 - Disclaimer

ORBIFLY MET'MAP TEAM :

Programming & Development : Alexandra Zaïnal
Original concept : Baudouin d'Aumeries
Technical & hardware support : Manuel Goepfert
Assistance : Marc-Olivier Méhu

Contact : metmap@orbifly.com




SOURCES & CREDITS :

   NOAA       Earth
Advisory